Time;durP1;ratioP1;P1;durP2;ratioP2;P2;SDS_P1;SDS_P2;PMS_P1;PMS_P2;Temp;Humidity;BMP_temperature;BMP_pressure;BME280_temperature;BME280_humidity;BME280_pressure;Samples;Min_cycle;Max_cycle;Signal;HPM_P1;HPM_P2
2023/04/10 00:00:11;;;;;;;13.07;7.60;;;;;;;7.56;59.09;101041.38;10184379;29;20055;-66
2023/04/10 00:05:12;;;;;;;9.85;5.07;;;;;;;7.47;59.31;101055.63;10183848;29;20441;-65
2023/04/10 00:10:14;;;;;;;10.27;5.60;;;;;;;7.42;59.43;101052.50;10182583;29;20068;-65
2023/04/10 00:15:15;;;;;;;9.50;5.55;;;;;;;7.40;59.16;101059.81;10186888;29;20075;-65
2023/04/10 00:20:16;;;;;;;12.95;5.70;;;;;;;7.40;59.45;101055.31;10184348;29;20511;-65
2023/04/10 00:25:18;;;;;;;14.02;6.13;;;;;;;7.33;59.49;101048.84;10185837;29;20055;-65
2023/04/10 00:30:20;;;;;;;7.78;5.00;;;;;;;7.32;58.99;101056.00;10194871;29;20449;-65
2023/04/10 00:35:21;;;;;;;8.40;5.13;;;;;;;7.32;59.56;101053.31;10183566;29;20505;-65
2023/04/10 00:40:23;;;;;;;11.52;5.85;;;;;;;7.29;59.18;101044.75;10184194;29;20048;-65
2023/04/10 00:45:25;;;;;;;9.25;5.25;;;;;;;7.24;59.01;101053.16;10191597;29;20082;-64
2023/04/10 00:50:26;;;;;;;9.65;5.45;;;;;;;7.18;60.33;101055.53;10187629;29;20083;-65
2023/04/10 00:55:27;;;;;;;10.02;5.80;;;;;;;7.14;59.79;101049.63;10174104;29;20043;-65
2023/04/10 01:00:29;;;;;;;9.88;6.07;;;;;;;7.09;60.16;101052.72;10184961;29;20055;-65
2023/04/10 01:05:38;;;;;;;10.32;5.85;;;;;;;7.08;59.58;101051.00;10173861;29;20055;-65
2023/04/10 01:11:04;;;;;;;8.77;5.13;;;;;;;6.95;60.14;101055.75;10176346;29;20067;-65
2023/04/10 01:16:28;;;;;;;8.82;5.63;;;;;;;6.91;59.80;101057.84;10175679;29;20039;-65
2023/04/10 01:21:32;;;;;;;12.93;5.68;;;;;;;6.94;60.26;101051.38;10189194;29;20059;-64
2023/04/10 01:27:04;;;;;;;9.52;5.40;;;;;;;6.84;59.82;101056.69;10188786;29;20082;-64
2023/04/10 01:32:13;;;;;;;10.48;6.25;;;;;;;6.83;60.26;101057.69;10180864;29;20076;-64
2023/04/10 01:37:19;;;;;;;9.98;5.55;;;;;;;6.76;60.33;101059.19;10187687;29;20056;-65
2023/04/10 01:42:22;;;;;;;7.65;5.45;;;;;;;6.74;61.01;101051.31;10185783;29;20056;-64
2023/04/10 01:47:25;;;;;;;9.50;6.05;;;;;;;6.77;60.28;101052.84;10183968;29;20139;-64
2023/04/10 01:52:29;;;;;;;11.93;5.55;;;;;;;6.65;60.93;101052.09;10186297;29;20063;-64
2023/04/10 01:57:30;;;;;;;10.23;5.45;;;;;;;6.69;60.72;101042.84;10188627;29;20044;-65
2023/04/10 02:02:33;;;;;;;10.15;5.53;;;;;;;6.77;61.08;101031.47;10170172;29;20062;-65
2023/04/10 02:08:02;;;;;;;6.63;4.85;;;;;;;6.72;60.42;101031.06;10189602;29;20052;-65
2023/04/10 02:13:06;;;;;;;10.27;5.97;;;;;;;6.62;61.05;101033.69;10187749;29;20064;-65
2023/04/10 02:18:09;;;;;;;9.60;5.03;;;;;;;6.62;60.97;101027.50;10176454;29;20377;-65
2023/04/10 02:23:10;;;;;;;10.63;5.85;;;;;;;6.53;60.88;101013.09;10176583;29;20107;-65
2023/04/10 02:28:12;;;;;;;8.00;5.35;;;;;;;6.56;61.12;101010.19;10179520;29;20074;-65
2023/04/10 02:33:13;;;;;;;12.02;6.10;;;;;;;6.47;61.36;101019.81;10184755;29;20076;-65
2023/04/10 02:38:15;;;;;;;11.48;5.40;;;;;;;6.30;61.83;101026.63;10190882;29;20055;-65
2023/04/10 02:43:17;;;;;;;10.57;6.00;;;;;;;6.08;62.24;101026.75;10197711;29;20056;-65
2023/04/10 02:48:19;;;;;;;10.98;6.57;;;;;;;5.97;62.10;101033.00;10189366;29;20051;-65
2023/04/10 02:53:21;;;;;;;9.02;5.80;;;;;;;6.08;62.27;101021.41;10191715;29;20072;-66
2023/04/10 02:58:23;;;;;;;10.68;5.57;;;;;;;6.09;61.64;101029.28;10195419;29;20773;-66
2023/04/10 03:03:24;;;;;;;10.35;6.20;;;;;;;6.14;62.27;101020.88;10189582;29;20171;-65
2023/04/10 03:08:26;;;;;;;8.27;5.82;;;;;;;6.16;62.12;101013.59;10196062;29;20055;-65
2023/04/10 03:13:28;;;;;;;9.43;5.82;;;;;;;6.13;62.23;101006.69;10188842;29;20055;-65
2023/04/10 03:18:30;;;;;;;10.45;5.85;;;;;;;6.09;62.01;101007.94;10192286;29;20060;-65
2023/04/10 03:23:32;;;;;;;11.30;5.93;;;;;;;6.10;61.72;101003.44;10192159;29;20044;-65
2023/04/10 03:28:35;;;;;;;9.10;5.82;;;;;;;6.20;61.87;101000.84;10186400;29;20804;-65
2023/04/10 03:33:36;;;;;;;9.82;5.70;;;;;;;6.23;61.85;100990.75;10183228;29;20071;-64
2023/04/10 03:38:38;;;;;;;9.18;5.30;;;;;;;6.23;62.12;100998.75;10190371;29;20047;-65
2023/04/10 03:43:39;;;;;;;11.95;6.25;;;;;;;6.18;61.62;100995.66;10168089;29;20637;-65
2023/04/10 03:48:41;;;;;;;10.43;5.78;;;;;;;6.21;62.22;100986.53;10187021;29;20051;-65
2023/04/10 03:53:42;;;;;;;10.07;5.80;;;;;;;6.21;62.18;100989.19;10182544;29;20416;-64
2023/04/10 03:58:43;;;;;;;9.82;5.90;;;;;;;6.21;61.80;100981.19;10191331;29;20086;-65
2023/04/10 04:03:45;;;;;;;12.40;6.28;;;;;;;6.11;62.17;100986.47;10190400;29;20083;-65
2023/04/10 04:08:46;;;;;;;11.35;6.43;;;;;;;6.12;62.32;100982.81;10190725;29;20056;-66
2023/04/10 04:13:48;;;;;;;8.75;5.50;;;;;;;6.06;62.83;100984.19;10184757;29;20044;-66
2023/04/10 04:18:49;;;;;;;12.77;6.93;;;;;;;6.06;62.55;100984.19;10186574;29;20048;-64
2023/04/10 04:23:50;;;;;;;10.00;6.15;;;;;;;6.08;62.37;100978.72;10182337;29;20067;-66
2023/04/10 04:28:52;;;;;;;11.40;5.65;;;;;;;6.08;62.94;100990.25;10180683;29;20099;-65
2023/04/10 04:33:53;;;;;;;8.98;5.40;;;;;;;6.06;63.07;100991.34;10185369;29;20093;-66
2023/04/10 04:38:55;;;;;;;11.43;6.05;;;;;;;6.09;62.62;100986.59;10180583;29;20151;-66
2023/04/10 04:43:57;;;;;;;10.63;5.55;;;;;;;6.07;62.28;100985.88;10202169;29;20047;-64
2023/04/10 04:48:59;;;;;;;9.27;5.88;;;;;;;5.95;62.96;100992.25;10213896;29;20136;-64
2023/04/10 04:54:00;;;;;;;13.82;8.27;;;;;;;6.07;62.69;100988.53;10218513;29;20128;-63
2023/04/10 04:59:02;;;;;;;17.35;10.93;;;;;;;6.14;62.36;100996.88;10216304;29;20060;-64
2023/04/10 05:04:04;;;;;;;12.75;8.30;;;;;;;6.11;63.05;100989.13;10215100;29;20064;-62
2023/04/10 05:09:05;;;;;;;11.82;7.13;;;;;;;6.10;62.24;100998.09;10214667;29;20051;-62
2023/04/10 05:14:07;;;;;;;9.30;6.00;;;;;;;6.13;62.68;100997.84;10206492;29;20056;-64
2023/04/10 05:19:08;;;;;;;10.57;6.22;;;;;;;6.24;62.86;100989.78;10218130;29;20056;-64
2023/04/10 05:24:10;;;;;;;13.02;5.53;;;;;;;6.36;62.50;100998.56;10221160;29;20145;-64
2023/04/10 05:29:11;;;;;;;10.18;5.95;;;;;;;6.43;62.42;100998.84;10217434;29;20700;-63
2023/04/10 05:34:12;;;;;;;9.60;5.40;;;;;;;6.50;62.58;101000.88;10217903;29;20048;-63
2023/04/10 05:39:14;;;;;;;10.10;6.03;;;;;;;6.65;62.03;101005.84;10212805;29;20055;-64
2023/04/10 05:44:16;;;;;;;11.50;6.10;;;;;;;6.75;62.85;101004.06;10228441;28;20036;-64
2023/04/10 05:49:17;;;;;;;12.30;6.88;;;;;;;6.90;62.45;101009.88;10232951;28;20076;-65
2023/04/10 05:54:18;;;;;;;12.30;6.63;;;;;;;7.01;61.90;101000.91;10226932;28;20044;-65
2023/04/10 05:59:20;;;;;;;10.18;6.20;;;;;;;7.18;62.41;101002.91;10226209;28;20047;-65
2023/04/10 06:04:22;;;;;;;10.48;6.72;;;;;;;7.31;62.50;101005.34;10221228;28;20063;-64
2023/04/10 06:09:23;;;;;;;11.10;6.18;;;;;;;7.43;62.00;101001.53;10237141;28;20031;-65
2023/04/10 06:14:25;;;;;;;13.27;8.05;;;;;;;7.57;61.66;101007.47;10231609;28;20067;-65
2023/04/10 06:19:26;;;;;;;15.77;10.80;;;;;;;7.72;62.27;100998.88;10228910;28;20032;-64
2023/04/10 06:24:27;;;;;;;14.23;8.18;;;;;;;7.92;62.57;100998.88;10226807;28;20039;-65
2023/04/10 06:29:29;;;;;;;20.00;10.10;;;;;;;8.10;61.77;100999.81;10244225;28;20076;-65
2023/04/10 06:34:30;;;;;;;11.02;7.20;;;;;;;8.27;61.38;100992.03;10215110;28;20075;-65
2023/04/10 06:39:32;;;;;;;10.95;7.03;;;;;;;8.44;61.67;100979.75;10225101;28;20064;-65
2023/04/10 06:44:33;;;;;;;11.77;7.13;;;;;;;8.59;61.23;100989.00;10227210;28;20264;-64
2023/04/10 06:49:35;;;;;;;10.68;6.45;;;;;;;8.78;61.59;100987.22;10224175;28;20039;-65
2023/04/10 06:54:36;;;;;;;10.23;6.88;;;;;;;8.91;61.30;100985.06;10228781;28;20032;-64
2023/04/10 06:59:37;;;;;;;14.75;8.18;;;;;;;9.02;61.36;100992.88;10228230;28;20063;-64
2023/04/10 07:04:39;;;;;;;11.25;6.43;;;;;;;9.25;60.62;100987.09;10219767;28;20059;-64
2023/04/10 07:09:40;;;;;;;14.27;7.47;;;;;;;9.47;60.32;100981.28;10215000;28;20051;-65
2023/04/10 07:14:42;;;;;;;19.38;10.68;;;;;;;9.69;60.25;100981.81;10225319;28;20107;-65
2023/04/10 07:19:43;;;;;;;11.25;7.78;;;;;;;9.90;59.99;100978.78;10224438;28;20043;-64
2023/04/10 07:24:45;;;;;;;14.32;8.50;;;;;;;10.09;59.90;100986.66;10233252;28;20043;-65
2023/04/10 07:29:46;;;;;;;14.25;7.88;;;;;;;10.34;59.29;100970.72;10219423;28;20070;-65
2023/04/10 07:34:48;;;;;;;9.98;6.28;;;;;;;10.50;59.14;100965.47;10208504;29;20059;-59
2023/04/10 07:39:49;;;;;;;11.77;6.93;;;;;;;10.76;58.94;100964.53;10196931;29;20256;-61
2023/04/10 07:44:50;;;;;;;11.18;7.53;;;;;;;10.99;57.79;100959.41;10190121;29;20146;-59
2023/04/10 07:49:52;;;;;;;10.80;6.78;;;;;;;11.27;57.53;100959.13;10196879;29;20054;-60
2023/04/10 07:54:53;;;;;;;10.88;6.82;;;;;;;11.38;57.49;100961.53;10189980;29;20059;-59
2023/04/10 07:59:56;;;;;;;14.07;7.35;;;;;;;11.58;56.97;100951.28;10189305;29;20115;-59
2023/04/10 08:04:57;;;;;;;10.75;7.05;;;;;;;11.74;56.70;100945.03;10183039;29;20094;-60
2023/04/10 08:09:58;;;;;;;12.35;7.53;;;;;;;12.00;56.06;100944.03;10183713;29;20052;-59
2023/04/10 08:15:00;;;;;;;11.98;7.28;;;;;;;12.24;55.16;100926.97;10206992;29;20083;-64
2023/04/10 08:20:03;;;;;;;11.98;8.07;;;;;;;12.44;54.96;100928.28;10224882;28;20052;-64
2023/04/10 08:25:05;;;;;;;12.38;8.02;;;;;;;12.64;54.56;100927.88;10216248;29;20052;-64
2023/04/10 08:30:07;;;;;;;13.02;7.90;;;;;;;12.87;54.02;100914.41;10214350;29;20095;-61
2023/04/10 08:35:08;;;;;;;12.23;7.90;;;;;;;13.11;53.55;100902.63;10198269;29;20107;-63
2023/04/10 08:40:10;;;;;;;14.38;7.05;;;;;;;13.35;53.15;100898.97;10222381;29;20043;-65
2023/04/10 08:45:12;;;;;;;11.13;7.15;;;;;;;13.55;52.76;100884.97;10221754;29;20035;-64
2023/04/10 08:50:16;;;;;;;15.32;7.40;;;;;;;13.79;52.27;100875.78;10227230;29;20038;-65
2023/04/10 08:55:19;;;;;;;10.57;6.60;;;;;;;14.07;51.42;100870.59;10224164;29;20198;-62
2023/04/10 09:00:20;;;;;;;9.38;6.40;;;;;;;14.35;50.43;100870.75;10223698;29;20092;-65
2023/04/10 09:05:28;;;;;;;9.50;5.72;;;;;;;14.64;49.43;100859.09;10225498;28;20051;-64
2023/04/10 09:10:29;;;;;;;9.77;5.07;;;;;;;15.02;48.54;100849.91;10216970;29;20055;-65
2023/04/10 09:15:54;;;;;;;8.98;5.35;;;;;;;15.33;47.40;100836.03;10223652;29;20056;-65
2023/04/10 09:21:05;;;;;;;8.32;5.75;;;;;;;15.58;46.58;100831.03;10217748;29;20048;-64
2023/04/10 09:26:23;;;;;;;7.13;5.03;;;;;;;15.98;45.75;100815.06;10219958;29;20104;-64
2023/04/10 09:31:36;;;;;;;6.82;4.65;;;;;;;16.27;44.77;100802.25;10218517;29;20048;-64
2023/04/10 09:36:42;;;;;;;7.20;4.47;;;;;;;16.69;44.32;100797.59;10214730;29;20063;-65
2023/04/10 09:41:51;;;;;;;8.40;3.60;;;;;;;16.94;42.87;100792.47;10210562;29;20056;-63
2023/04/10 09:46:53;;;;;;;5.50;4.38;;;;;;;17.07;42.80;100791.63;10220267;29;20052;-64
2023/04/10 09:51:55;;;;;;;4.10;3.25;;;;;;;17.25;41.97;100788.28;10222167;29;20106;-62
2023/04/10 09:56:57;;;;;;;4.18;3.53;;;;;;;17.35;41.13;100772.38;10215372;29;20036;-62
2023/04/10 10:01:58;;;;;;;7.45;5.53;;;;;;;17.41;40.96;100771.53;10209862;29;20048;-63
2023/04/10 10:07:00;;;;;;;4.80;3.40;;;;;;;17.56;40.40;100756.91;10212625;29;20044;-63
2023/04/10 10:12:02;;;;;;;6.25;4.40;;;;;;;17.74;40.06;100745.34;10216827;29;20398;-63
2023/04/10 10:17:09;;;;;;;4.78;3.63;;;;;;;17.75;39.45;100745.16;10210762;29;20103;-64
2023/04/10 10:22:12;;;;;;;8.27;4.72;;;;;;;17.94;39.11;100731.72;10212162;29;20090;-65
2023/04/10 10:27:16;;;;;;;5.38;3.88;;;;;;;18.12;38.91;100720.97;10202064;29;20048;-64
2023/04/10 10:32:20;;;;;;;4.05;3.15;;;;;;;18.37;38.53;100721.03;10204993;29;20059;-62
2023/04/10 10:37:22;;;;;;;3.80;3.30;;;;;;;18.62;37.98;100707.47;10200749;29;20047;-63
2023/04/10 10:42:32;;;;;;;4.90;4.10;;;;;;;18.94;37.27;100693.84;10190139;29;20052;-63
2023/04/10 10:47:41;;;;;;;4.70;2.90;;;;;;;19.42;36.55;100679.53;10203372;29;20035;-64
2023/04/10 10:52:52;;;;;;;4.10;3.30;;;;;;;19.85;35.87;100687.91;10201700;29;20056;-63
2023/04/10 10:57:56;;;;;;;3.90;2.78;;;;;;;20.18;35.73;100673.78;10205684;29;20146;-63
2023/04/10 11:03:06;;;;;;;3.92;2.88;;;;;;;20.56;35.46;100664.44;10209607;29;20099;-62
2023/04/10 11:08:08;;;;;;;3.63;2.88;;;;;;;20.76;34.68;100664.13;10218483;29;20051;-63
2023/04/10 11:13:17;;;;;;;3.72;2.88;;;;;;;21.03;34.87;100647.25;10219308;29;20166;-63
2023/04/10 11:18:19;;;;;;;3.80;2.85;;;;;;;21.26;33.62;100630.84;10223663;29;20052;-64
2023/04/10 11:23:21;;;;;;;5.18;2.88;;;;;;;21.17;33.05;100607.69;10216331;29;20040;-63
2023/04/10 11:28:34;;;;;;;3.35;3.05;;;;;;;21.43;32.77;100608.22;10215371;29;20058;-64
2023/04/10 11:33:36;;;;;;;3.10;2.60;;;;;;;21.57;32.76;100598.69;10222422;29;20071;-65
2023/04/10 11:38:38;;;;;;;4.75;2.42;;;;;;;21.71;32.57;100593.78;10218151;29;20040;-63
2023/04/10 11:43:39;;;;;;;3.22;2.38;;;;;;;21.84;32.20;100579.81;10224417;29;20058;-64
2023/04/10 11:48:41;;;;;;;3.60;2.80;;;;;;;21.94;32.04;100577.25;10226844;29;20055;-62
2023/04/10 11:53:42;;;;;;;2.78;2.50;;;;;;;21.90;31.30;100565.13;10204849;29;20044;-63
2023/04/10 11:58:44;;;;;;;3.08;2.38;;;;;;;21.87;31.28;100553.84;10224862;29;20055;-64
2023/04/10 12:03:45;;;;;;;3.03;1.98;;;;;;;21.92;31.37;100554.78;10226967;29;20095;-63
2023/04/10 12:08:50;;;;;;;3.20;2.15;;;;;;;21.94;31.17;100541.66;10223032;29;20072;-64
2023/04/10 12:13:56;;;;;;;3.33;2.30;;;;;;;21.96;31.34;100530.47;10218755;29;20063;-63
2023/04/10 12:18:57;;;;;;;2.85;2.13;;;;;;;22.06;31.06;100529.78;10219900;29;20058;-63
2023/04/10 12:23:59;;;;;;;3.85;2.03;;;;;;;22.21;31.10;100515.53;10219983;29;20055;-62
2023/04/10 12:29:00;;;;;;;3.58;2.00;;;;;;;22.17;30.76;100512.47;10217007;29;20052;-63
2023/04/10 12:34:04;;;;;;;2.70;1.90;;;;;;;22.18;30.51;100505.91;10213587;29;20111;-63
2023/04/10 12:39:21;;;;;;;2.95;1.63;;;;;;;22.31;29.84;100491.91;10202306;29;20541;-63
2023/04/10 12:44:22;;;;;;;2.38;2.00;;;;;;;22.71;29.97;100481.78;10222949;29;20051;-64
2023/04/10 12:49:24;;;;;;;1.65;1.35;;;;;;;22.95;28.90;100483.22;10219253;29;20076;-63
2023/04/10 12:54:33;;;;;;;1.20;0.90;;;;;;;23.17;28.01;100474.19;10216992;29;20048;-64
2023/04/10 12:59:36;;;;;;;0.95;0.70;;;;;;;23.34;27.05;100469.44;10220250;29;20128;-64
2023/04/10 13:04:37;;;;;;;2.22;0.70;;;;;;;23.22;26.98;100449.53;10220344;29;20063;-64
2023/04/10 13:09:39;;;;;;;1.20;0.68;;;;;;;23.26;26.61;100449.84;10219712;29;20135;-63
2023/04/10 13:14:40;;;;;;;1.48;0.60;;;;;;;23.21;26.12;100441.59;10218795;29;20032;-62
2023/04/10 13:19:42;;;;;;;1.33;0.75;;;;;;;23.34;25.86;100424.69;10222410;29;20070;-65
2023/04/10 13:24:44;;;;;;;0.88;0.60;;;;;;;23.53;25.25;100433.38;10216034;29;20263;-61
2023/04/10 13:29:45;;;;;;;4.13;2.78;;;;;;;23.93;25.42;100411.00;10223202;29;20056;-62
2023/04/10 13:34:46;;;;;;;2.53;0.60;;;;;;;23.89;24.96;100404.34;10218287;29;20058;-63
2023/04/10 13:39:48;;;;;;;1.10;0.88;;;;;;;24.25;24.67;100401.00;10216578;29;20044;-61
2023/04/10 13:44:49;;;;;;;1.20;0.77;;;;;;;24.21;24.75;100395.25;10218185;29;20143;-64
2023/04/10 13:49:50;;;;;;;1.40;0.70;;;;;;;24.33;24.28;100386.78;10219223;29;20114;-63
2023/04/10 13:54:52;;;;;;;2.05;0.40;;;;;;;24.29;23.48;100378.25;10216140;29;20043;-63
2023/04/10 13:59:53;;;;;;;4.10;0.70;;;;;;;23.81;23.63;100369.16;10218345;29;20052;-63
2023/04/10 14:04:55;;;;;;;0.75;0.50;;;;;;;23.52;23.61;100363.97;10209378;29;20067;-62
2023/04/10 14:09:56;;;;;;;0.98;0.63;;;;;;;23.42;23.46;100357.56;10206655;29;20681;-63
2023/04/10 14:14:58;;;;;;;1.00;0.90;;;;;;;23.41;23.31;100353.16;10209272;29;20093;-63
2023/04/10 14:19:59;;;;;;;1.20;0.90;;;;;;;23.31;23.50;100337.44;10207167;29;20051;-63
2023/04/10 14:25:00;;;;;;;1.70;0.80;;;;;;;23.14;23.67;100338.41;10212748;29;20055;-63
2023/04/10 14:30:14;;;;;;;0.90;0.68;;;;;;;23.09;23.59;100327.38;10208913;29;20059;-61
2023/04/10 14:35:15;;;;;;;1.80;0.93;;;;;;;23.12;23.53;100318.63;10215343;29;20491;-63
2023/04/10 14:40:17;;;;;;;1.20;0.93;;;;;;;23.19;23.73;100307.44;10217030;29;20055;-62
2023/04/10 14:45:18;;;;;;;2.70;0.70;;;;;;;23.23;23.62;100291.31;10201459;29;20050;-64
2023/04/10 14:50:19;;;;;;;1.02;0.70;;;;;;;23.35;23.64;100284.53;10214919;29;20055;-64
2023/04/10 14:55:21;;;;;;;1.30;0.82;;;;;;;23.76;23.22;100270.28;10215175;29;20079;-62
2023/04/10 15:00:25;;;;;;;2.45;0.90;;;;;;;23.47;23.37;100262.38;10213482;29;20425;-63
2023/04/10 15:05:27;;;;;;;1.63;0.80;;;;;;;23.25;23.13;100250.72;10209275;29;20052;-64
2023/04/10 15:10:29;;;;;;;0.73;0.57;;;;;;;22.92;23.43;100244.38;10211951;29;20062;-60
2023/04/10 15:15:30;;;;;;;1.15;0.80;;;;;;;22.82;23.71;100233.31;10211258;29;20052;-63
2023/04/10 15:20:32;;;;;;;1.48;0.77;;;;;;;22.72;23.41;100234.06;10212651;29;20048;-63
2023/04/10 15:25:33;;;;;;;0.82;0.70;;;;;;;22.54;23.50;100230.59;10208784;29;20047;-62
2023/04/10 15:30:35;;;;;;;1.00;0.70;;;;;;;22.43;23.30;100217.88;10208686;29;20067;-61
2023/04/10 15:35:36;;;;;;;3.72;0.60;;;;;;;22.45;23.70;100206.66;10210483;29;20080;-62
2023/04/10 15:40:37;;;;;;;0.98;0.60;;;;;;;22.44;24.08;100196.81;10208206;29;20086;-63
2023/04/10 15:45:39;;;;;;;0.80;0.65;;;;;;;22.44;24.29;100185.84;10212404;29;20048;-62
2023/04/10 15:50:41;;;;;;;0.68;0.50;;;;;;;22.16;23.68;100161.16;10208085;29;20063;-63
2023/04/10 15:55:43;;;;;;;2.45;0.60;;;;;;;22.11;23.52;100160.28;10206497;29;20166;-62
2023/04/10 16:00:44;;;;;;;0.82;0.52;;;;;;;22.17;23.07;100149.09;10203340;29;20554;-60
2023/04/10 16:05:46;;;;;;;1.95;0.55;;;;;;;22.31;23.26;100133.13;10208099;29;20508;-64
2023/04/10 16:10:47;;;;;;;1.20;0.50;;;;;;;22.51;22.89;100132.50;10196221;29;20052;-64
2023/04/10 16:15:49;;;;;;;3.60;0.50;;;;;;;22.69;22.79;100125.78;10219356;29;20052;-62
2023/04/10 16:20:50;;;;;;;1.02;0.50;;;;;;;22.51;22.69;100135.25;10218362;29;20056;-63
2023/04/10 16:25:52;;;;;;;1.45;0.60;;;;;;;22.57;22.91;100128.72;10216190;29;20048;-64
2023/04/10 16:30:53;;;;;;;0.90;0.60;;;;;;;22.48;23.35;100118.50;10217217;29;20067;-63
2023/04/10 16:35:56;;;;;;;1.25;0.70;;;;;;;22.18;23.59;100108.88;10409226;23;20103;-63
2023/04/10 16:41:00;;;;;;;0.98;0.77;;;;;;;21.86;23.44;100114.28;10235155;28;20051;-63
2023/04/10 16:46:02;;;;;;;1.00;0.60;;;;;;;21.61;23.62;100109.34;10228290;28;20055;-63
2023/04/10 16:51:05;;;;;;;2.45;0.98;;;;;;;21.44;24.10;100082.88;10229744;28;20103;-63
2023/04/10 16:56:06;;;;;;;1.27;0.50;;;;;;;21.30;24.08;100089.78;10231401;28;20052;-62
2023/04/10 17:01:27;;;;;;;0.80;0.52;;;;;;;21.14;24.19;100078.63;10227210;28;20070;-63
2023/04/10 17:06:28;;;;;;;0.80;0.70;;;;;;;20.99;24.76;100076.53;10233260;28;20063;-63
2023/04/10 17:11:30;;;;;;;0.93;0.60;;;;;;;20.95;25.01;100067.19;10232405;28;20075;-64
2023/04/10 17:16:31;;;;;;;3.50;0.73;;;;;;;20.95;24.87;100072.66;10222516;28;20070;-66
2023/04/10 17:21:33;;;;;;;1.58;0.65;;;;;;;20.67;25.36;100065.38;10234994;28;20483;-64
2023/04/10 17:26:34;;;;;;;1.20;0.52;;;;;;;20.46;25.25;100045.13;10204692;28;20048;-64
2023/04/10 17:31:36;;;;;;;0.88;0.63;;;;;;;20.37;25.86;100054.78;10190417;29;20079;-65
2023/04/10 17:36:37;;;;;;;0.88;0.70;;;;;;;20.15;26.20;100052.78;10188244;29;20055;-65
2023/04/10 17:41:38;;;;;;;1.48;0.75;;;;;;;19.99;27.01;100045.41;10205520;29;20084;-64
2023/04/10 17:46:40;;;;;;;1.40;0.90;;;;;;;19.95;27.41;100041.53;10200834;29;20048;-64
2023/04/10 17:51:41;;;;;;;3.33;1.40;;;;;;;19.88;27.99;100041.66;10185412;29;20519;-65
2023/04/10 17:56:43;;;;;;;1.83;1.10;;;;;;;19.68;28.33;100033.06;10201593;29;20052;-64
2023/04/10 18:01:44;;;;;;;3.17;0.90;;;;;;;19.64;28.57;100021.00;10183767;29;20055;-66
2023/04/10 18:06:45;;;;;;;2.47;0.90;;;;;;;19.51;28.76;100003.88;10165489;29;20119;-65
2023/04/10 18:11:49;;;;;;;1.40;0.90;;;;;;;19.44;29.15;100019.53;10183022;29;20052;-65
2023/04/10 18:16:50;;;;;;;1.42;0.93;;;;;;;19.32;29.33;100038.66;10184586;29;20452;-66
2023/04/10 18:21:51;;;;;;;4.00;1.17;;;;;;;19.27;29.70;100032.28;10184000;29;20082;-65
2023/04/10 18:26:53;;;;;;;1.80;1.00;;;;;;;19.21;29.84;100017.72;10190408;29;20052;-62
2023/04/10 18:31:54;;;;;;;3.08;1.10;;;;;;;19.14;29.93;100009.69;10169644;29;20083;-62
2023/04/10 18:36:56;;;;;;;1.70;0.75;;;;;;;19.03;29.84;100013.25;10189149;29;20085;-65
2023/04/10 18:41:57;;;;;;;1.65;0.90;;;;;;;18.83;30.26;100000.84;10184856;29;20118;-64
2023/04/10 18:46:58;;;;;;;1.70;0.93;;;;;;;18.77;30.35;100007.22;10190646;29;20051;-65
2023/04/10 18:52:06;;;;;;;3.47;0.93;;;;;;;18.77;30.52;100018.13;10182967;29;20151;-66
2023/04/10 18:57:07;;;;;;;2.33;0.77;;;;;;;18.68;30.67;100022.28;10185998;29;20102;-65
2023/04/10 19:02:09;;;;;;;1.30;0.80;;;;;;;18.67;30.88;100008.91;10180832;29;20060;-66
2023/04/10 19:07:10;;;;;;;1.05;0.70;;;;;;;18.61;31.01;100024.28;10178714;29;20142;-66
2023/04/10 19:12:12;;;;;;;2.13;1.00;;;;;;;18.62;31.23;100031.38;10174138;29;20686;-65
2023/04/10 19:17:13;;;;;;;1.23;0.68;;;;;;;18.54;31.34;100020.84;10181771;29;20056;-64
2023/04/10 19:22:15;;;;;;;1.50;0.73;;;;;;;18.54;31.61;100009.94;10180531;29;21475;-65
2023/04/10 19:27:17;;;;;;;3.10;0.80;;;;;;;18.50;31.88;99995.16;10180507;29;20462;-64
2023/04/10 19:32:18;;;;;;;0.93;0.77;;;;;;;18.54;31.99;99996.34;10181230;29;20108;-63
2023/04/10 19:37:20;;;;;;;0.93;0.60;;;;;;;18.45;32.13;99998.59;10180660;29;20059;-63
2023/04/10 19:42:21;;;;;;;1.83;0.98;;;;;;;18.39;32.63;99989.50;10181528;29;20056;-64
2023/04/10 19:47:23;;;;;;;1.88;0.80;;;;;;;18.39;32.77;99981.31;10183695;29;20052;-64
2023/04/10 19:52:24;;;;;;;1.67;0.60;;;;;;;18.37;32.70;99977.19;10184020;29;20043;-64
2023/04/10 19:57:26;;;;;;;0.90;0.70;;;;;;;18.31;32.89;99965.34;10183104;29;20467;-65
2023/04/10 20:02:27;;;;;;;1.63;0.70;;;;;;;18.30;33.20;99960.16;10188215;29;20056;-65
2023/04/10 20:07:29;;;;;;;2.05;0.98;;;;;;;18.21;33.65;99948.78;10181818;29;20059;-62
2023/04/10 20:12:34;;;;;;;1.13;0.75;;;;;;;18.15;34.39;99955.19;10185749;29;20084;-64
2023/04/10 20:17:37;;;;;;;1.50;0.73;;;;;;;17.80;36.07;99956.75;10184188;29;20154;-65
2023/04/10 20:22:38;;;;;;;1.30;0.80;;;;;;;16.92;39.43;99927.47;10187885;29;20060;-61
2023/04/10 20:27:40;;;;;;;1.88;1.00;;;;;;;16.75;40.52;99922.66;10194121;29;20067;-61
2023/04/10 20:32:41;;;;;;;1.40;0.80;;;;;;;16.69;40.84;99918.13;10189087;29;20557;-62
2023/04/10 20:37:42;;;;;;;1.17;0.70;;;;;;;16.66;41.20;99922.09;10188163;29;20052;-60
2023/04/10 20:42:44;;;;;;;1.65;1.02;;;;;;;16.62;41.90;99920.91;10192418;29;20086;-62
2023/04/10 20:47:45;;;;;;;1.65;0.80;;;;;;;16.50;42.66;99906.44;10193205;29;20126;-63
2023/04/10 20:52:46;;;;;;;1.65;1.02;;;;;;;16.60;43.60;99887.72;10178088;29;20058;-60
2023/04/10 20:57:48;;;;;;;1.88;0.90;;;;;;;16.65;43.87;99887.06;10185830;29;20056;-61
2023/04/10 21:02:49;;;;;;;2.28;1.35;;;;;;;16.55;43.82;99906.59;10189118;29;20448;-61
2023/04/10 21:07:52;;;;;;;2.17;0.80;;;;;;;16.41;44.31;99891.50;10193050;29;20059;-63
2023/04/10 21:12:53;;;;;;;2.58;1.20;;;;;;;16.42;44.42;99888.56;10198819;29;20052;-60
2023/04/10 21:17:54;;;;;;;7.47;1.77;;;;;;;16.42;44.79;99864.16;10192459;29;20137;-61
2023/04/10 21:22:56;;;;;;;3.28;1.92;;;;;;;16.44;45.40;99869.34;10195957;29;20083;-61
2023/04/10 21:27:57;;;;;;;6.57;1.60;;;;;;;16.53;45.35;99854.44;10191634;29;20415;-63
2023/04/10 21:32:59;;;;;;;3.65;1.77;;;;;;;16.61;45.17;99821.56;10191251;29;20071;-61
2023/04/10 21:38:00;;;;;;;2.70;1.33;;;;;;;16.62;45.75;99803.38;10189594;29;20144;-63
2023/04/10 21:43:03;;;;;;;3.10;1.52;;;;;;;16.64;46.13;99810.22;10189189;29;20066;-63
2023/04/10 21:48:04;;;;;;;2.58;1.77;;;;;;;16.59;46.46;99809.28;10173264;29;20103;-61
2023/04/10 21:53:06;;;;;;;3.85;2.05;;;;;;;16.62;46.59;99797.97;10193279;29;20079;-61
2023/04/10 21:58:07;;;;;;;2.22;1.10;;;;;;;16.50;46.61;99788.94;10191518;29;20051;-63
2023/04/10 22:03:08;;;;;;;1.90;1.30;;;;;;;16.40;46.71;99782.16;10191318;29;20051;-61
2023/04/10 22:08:10;;;;;;;1.80;1.20;;;;;;;16.28;47.08;99796.75;10188009;29;20051;-62
2023/04/10 22:13:13;;;;;;;1.95;1.20;;;;;;;16.04;47.56;99799.31;10189220;29;20056;-65
2023/04/10 22:18:30;;;;;;;2.40;1.13;;;;;;;15.92;47.99;99820.09;10184634;29;20044;-63
2023/04/10 22:23:31;;;;;;;3.05;1.45;;;;;;;15.38;49.75;99830.50;10196205;29;20055;-62
2023/04/10 22:28:33;;;;;;;2.08;1.00;;;;;;;15.29;50.48;99837.28;10198898;29;20119;-62
2023/04/10 22:33:36;;;;;;;3.35;1.15;;;;;;;14.98;52.93;99834.34;10194501;29;20103;-60
2023/04/10 22:38:37;;;;;;;1.00;0.80;;;;;;;14.21;56.40;99828.00;10188164;29;20068;-62
2023/04/10 22:43:39;;;;;;;1.90;0.80;;;;;;;13.87;58.47;99856.97;10192410;29;20569;-61
2023/04/10 22:48:40;;;;;;;2.95;1.38;;;;;;;13.54;60.64;99825.41;10194646;29;20044;-59
2023/04/10 22:53:41;;;;;;;3.17;1.30;;;;;;;13.55;60.56;99816.28;10205235;29;20052;-60
2023/04/10 22:58:43;;;;;;;1.70;1.00;;;;;;;13.56;61.21;99809.81;10197616;29;20044;-60
2023/04/10 23:03:44;;;;;;;2.88;1.10;;;;;;;13.56;61.48;99811.69;10204106;29;20051;-59
2023/04/10 23:08:46;;;;;;;3.20;1.38;;;;;;;13.59;61.90;99808.59;10202638;29;20056;-62
2023/04/10 23:13:48;;;;;;;2.20;1.40;;;;;;;13.54;62.44;99816.47;10203651;29;20048;-60